N553G MMLO-MMLO
Flight info
| Callsign | N553G |
|---|---|
| Flight time | 0h 21m |
| Altitude | 7000 |
| Route | LCL |
| Aircraft | C172/L-DOV/C |
Departure
| Time | 2026-04-14 19:51 |
|---|---|
| Airport | Guanajuato International Airport (MMLO) |
Arrival
| Time | 2026-04-14 20:12 |
|---|---|
| Airport | Guanajuato International Airport (MMLO) |
| Time | Latitude | Longitude | Altitude | Speed | Heading |
|---|---|---|---|---|---|
| 2026-04-14 19:46 | 20.98766 | -101.47586 | 5906 ft | 0 kts | 44° |
| 2026-04-14 19:47 | 20.98767 | -101.47585 | 5906 ft | 0 kts | 44° |
| 2026-04-14 19:48 | 20.98791 | -101.47561 | 5906 ft | 8 kts | 44° |
| 2026-04-14 19:48 | 20.98848 | -101.47573 | 5907 ft | 17 kts | 315° |
| 2026-04-14 19:48 | 20.99016 | -101.47756 | 5910 ft | 51 kts | 314° |
| 2026-04-14 19:48 | 20.99325 | -101.48095 | 5919 ft | 74 kts | 314° |
| 2026-04-14 19:49 | 20.99683 | -101.48498 | 5993 ft | 76 kts | 312° |
| 2026-04-14 19:49 | 21.00047 | -101.48910 | 6083 ft | 74 kts | 315° |
| 2026-04-14 19:49 | 21.00408 | -101.49295 | 6161 ft | 73 kts | 314° |
| 2026-04-14 19:49 | 21.00740 | -101.49724 | 6209 ft | 77 kts | 306° |
| 2026-04-14 19:50 | 21.01112 | -101.50231 | 6187 ft | 91 kts | 311° |
| 2026-04-14 19:50 | 21.01527 | -101.50742 | 6279 ft | 88 kts | 311° |
| 2026-04-14 19:50 | 21.01928 | -101.51227 | 6382 ft | 87 kts | 311° |
| 2026-04-14 19:50 | 21.02292 | -101.51730 | 6502 ft | 81 kts | 294° |
| 2026-04-14 19:51 | 21.02222 | -101.52293 | 6533 ft | 86 kts | 243° |
| 2026-04-14 19:51 | 21.01882 | -101.52806 | 6622 ft | 85 kts | 220° |
| 2026-04-14 19:51 | 21.01376 | -101.53161 | 6673 ft | 89 kts | 214° |
| 2026-04-14 19:51 | 21.00852 | -101.53504 | 6744 ft | 89 kts | 212° |
| 2026-04-14 19:52 | 21.00318 | -101.53828 | 6827 ft | 86 kts | 209° |
| 2026-04-14 19:52 | 20.99798 | -101.54153 | 6892 ft | 87 kts | 212° |
| 2026-04-14 19:52 | 20.99248 | -101.54494 | 6874 ft | 98 kts | 213° |
| 2026-04-14 19:52 | 20.98654 | -101.54878 | 6915 ft | 99 kts | 213° |
| 2026-04-14 19:53 | 20.98038 | -101.55262 | 6939 ft | 102 kts | 198° |
| 2026-04-14 19:53 | 20.97459 | -101.55007 | 7031 ft | 99 kts | 112° |
| 2026-04-14 19:53 | 20.97304 | -101.54263 | 6995 ft | 109 kts | 102° |
| 2026-04-14 19:53 | 20.97205 | -101.53470 | 7004 ft | 111 kts | 97° |
| 2026-04-14 19:54 | 20.97098 | -101.52646 | 7012 ft | 112 kts | 98° |
| 2026-04-14 19:54 | 20.96771 | -101.51039 | 7041 ft | 111 kts | 104° |
| 2026-04-14 19:54 | 20.96644 | -101.50215 | 6998 ft | 115 kts | 96° |
| 2026-04-14 19:55 | 20.96551 | -101.49375 | 6991 ft | 114 kts | 98° |
| 2026-04-14 19:55 | 20.96444 | -101.48516 | 6936 ft | 119 kts | 102° |
| 2026-04-14 19:55 | 20.96258 | -101.47699 | 6825 ft | 106 kts | 104° |
| 2026-04-14 19:55 | 20.96500 | -101.47074 | 6734 ft | 98 kts | 37° |
| 2026-04-14 19:56 | 20.97069 | -101.46702 | 6542 ft | 98 kts | 18° |
| 2026-04-14 19:56 | 20.97747 | -101.46622 | 6190 ft | 98 kts | 349° |
| 2026-04-14 19:56 | 20.98305 | -101.46980 | 5905 ft | 89 kts | 316° |
| 2026-04-14 19:56 | 20.98666 | -101.47369 | 5903 ft | 60 kts | 315° |
| 2026-04-14 19:57 | 20.98995 | -101.47730 | 5910 ft | 75 kts | 314° |
| 2026-04-14 19:57 | 20.99373 | -101.48155 | 5947 ft | 79 kts | 313° |
| 2026-04-14 19:57 | 20.99759 | -101.48574 | 6039 ft | 78 kts | 315° |
| 2026-04-14 19:57 | 21.00149 | -101.48971 | 6153 ft | 74 kts | 314° |
| 2026-04-14 19:58 | 21.00476 | -101.49411 | 6206 ft | 78 kts | 306° |
| 2026-04-14 19:58 | 21.00788 | -101.49896 | 6274 ft | 80 kts | 301° |
| 2026-04-14 19:58 | 21.01063 | -101.50400 | 6385 ft | 77 kts | 303° |
| 2026-04-14 19:58 | 21.01352 | -101.50874 | 6477 ft | 76 kts | 302° |
| 2026-04-14 19:59 | 21.01542 | -101.51385 | 6555 ft | 74 kts | 265° |
| 2026-04-14 19:59 | 21.01345 | -101.51877 | 6619 ft | 73 kts | 240° |
| 2026-04-14 19:59 | 21.01063 | -101.52326 | 6676 ft | 74 kts | 237° |
| 2026-04-14 19:59 | 21.00765 | -101.52781 | 6695 ft | 80 kts | 237° |
| 2026-04-14 20:00 | 21.00428 | -101.53315 | 6663 ft | 93 kts | 234° |
| 2026-04-14 20:00 | 21.00065 | -101.53837 | 6786 ft | 84 kts | 233° |
| 2026-04-14 20:00 | 20.99715 | -101.54334 | 6867 ft | 84 kts | 233° |
| 2026-04-14 20:00 | 20.99268 | -101.54671 | 6925 ft | 86 kts | 177° |
| 2026-04-14 20:01 | 20.98777 | -101.54344 | 6966 ft | 87 kts | 135° |
| 2026-04-14 20:01 | 20.98313 | -101.53821 | 6899 ft | 102 kts | 135° |
| 2026-04-14 20:01 | 20.97801 | -101.53290 | 6932 ft | 103 kts | 139° |
| 2026-04-14 20:01 | 20.97218 | -101.52842 | 6967 ft | 104 kts | 147° |
| 2026-04-14 20:02 | 20.96606 | -101.52404 | 6959 ft | 109 kts | 153° |
| 2026-04-14 20:02 | 20.95931 | -101.52049 | 7017 ft | 106 kts | 155° |
| 2026-04-14 20:02 | 20.95307 | -101.51596 | 6931 ft | 116 kts | 142° |
| 2026-04-14 20:02 | 20.94624 | -101.51109 | 6880 ft | 119 kts | 151° |
| 2026-04-14 20:03 | 20.93946 | -101.50614 | 6927 ft | 108 kts | 121° |
| 2026-04-14 20:03 | 20.94030 | -101.49940 | 7099 ft | 96 kts | 61° |
| 2026-04-14 20:03 | 20.94554 | -101.49358 | 6881 ft | 118 kts | 45° |
| 2026-04-14 20:03 | 20.95130 | -101.48740 | 6884 ft | 114 kts | 46° |
| 2026-04-14 20:04 | 20.95641 | -101.48140 | 6908 ft | 99 kts | 48° |
| 2026-04-14 20:04 | 20.96053 | -101.47567 | 6756 ft | 97 kts | 55° |
| 2026-04-14 20:04 | 20.96461 | -101.46974 | 6531 ft | 100 kts | 51° |
| 2026-04-14 20:04 | 20.97053 | -101.46653 | 6382 ft | 97 kts | 12° |
| 2026-04-14 20:05 | 20.97705 | -101.46627 | 6109 ft | 95 kts | 347° |
| 2026-04-14 20:05 | 20.98245 | -101.46923 | 5917 ft | 82 kts | 319° |
| 2026-04-14 20:05 | 20.98586 | -101.47288 | 5900 ft | 56 kts | 316° |
| 2026-04-14 20:05 | 20.98855 | -101.47581 | 5907 ft | 65 kts | 314° |
| 2026-04-14 20:06 | 20.99222 | -101.47980 | 5916 ft | 83 kts | 314° |
| 2026-04-14 20:06 | 20.99633 | -101.48438 | 6005 ft | 84 kts | 315° |
| 2026-04-14 20:06 | 21.00035 | -101.48884 | 6091 ft | 85 kts | 311° |
| 2026-04-14 20:06 | 21.00420 | -101.49361 | 6190 ft | 85 kts | 308° |
| 2026-04-14 20:07 | 21.00795 | -101.49847 | 6289 ft | 84 kts | 309° |
| 2026-04-14 20:07 | 21.01130 | -101.50323 | 6411 ft | 78 kts | 304° |
| 2026-04-14 20:07 | 21.01329 | -101.50829 | 6509 ft | 73 kts | 257° |
| 2026-04-14 20:07 | 21.01008 | -101.51261 | 6509 ft | 83 kts | 226° |
| 2026-04-14 20:08 | 21.00564 | -101.51671 | 6566 ft | 86 kts | 218° |
| 2026-04-14 20:08 | 21.00047 | -101.52076 | 6542 ft | 94 kts | 218° |
| 2026-04-14 20:08 | 20.99500 | -101.52199 | 6707 ft | 82 kts | 149° |
| 2026-04-14 20:08 | 20.99016 | -101.51822 | 6695 ft | 94 kts | 146° |
| 2026-04-14 20:09 | 20.98474 | -101.51412 | 6791 ft | 90 kts | 143° |
| 2026-04-14 20:09 | 20.97937 | -101.50993 | 6783 ft | 100 kts | 146° |
| 2026-04-14 20:09 | 20.97369 | -101.50548 | 6793 ft | 105 kts | 144° |
| 2026-04-14 20:09 | 20.96786 | -101.50078 | 6835 ft | 103 kts | 147° |
| 2026-04-14 20:10 | 20.96203 | -101.49673 | 6915 ft | 99 kts | 147° |
| 2026-04-14 20:10 | 20.95719 | -101.49185 | 7020 ft | 94 kts | 121° |
| 2026-04-14 20:10 | 20.95534 | -101.48504 | 7043 ft | 99 kts | 93° |
| 2026-04-14 20:10 | 20.95584 | -101.47743 | 7021 ft | 104 kts | 84° |
| 2026-04-14 20:11 | 20.95766 | -101.47042 | 7106 ft | 94 kts | 58° |
| 2026-04-14 20:11 | 20.96255 | -101.46509 | 6770 ft | 101 kts | 31° |
| 2026-04-14 20:11 | 20.96849 | -101.46330 | 6536 ft | 90 kts | 3° |
| 2026-04-14 20:11 | 20.97470 | -101.46409 | 6224 ft | 88 kts | 345° |
| 2026-04-14 20:12 | 20.97993 | -101.46681 | 5987 ft | 82 kts | 323° |
| 2026-04-14 20:12 | 20.98401 | -101.47078 | 5894 ft | 66 kts | 316° |
| 2026-04-14 20:12 | 20.98654 | -101.47355 | 5902 ft | 41 kts | 314° |
| 2026-04-14 20:12 | 20.98884 | -101.47610 | 5907 ft | 61 kts | 314° |
| 2026-04-14 20:13 | 20.99230 | -101.47994 | 5933 ft | 77 kts | 313° |
| 2026-04-14 20:13 | 20.99598 | -101.48435 | 6013 ft | 79 kts | 310° |
| 2026-04-14 20:13 | 20.99936 | -101.48902 | 6078 ft | 82 kts | 308° |
| 2026-04-14 20:13 | 21.00341 | -101.49345 | 6174 ft | 82 kts | 314° |
| 2026-04-14 20:14 | 21.00709 | -101.49794 | 6287 ft | 79 kts | 306° |
| 2026-04-14 20:14 | 21.01020 | -101.50267 | 6393 ft | 73 kts | 304° |
| 2026-04-14 20:14 | 21.01275 | -101.50728 | 6418 ft | 79 kts | 299° |
| 2026-04-14 20:14 | 21.01488 | -101.51253 | 6510 ft | 77 kts | 276° |
| 2026-04-14 20:15 | 21.01242 | -101.51735 | 6560 ft | 78 kts | 227° |
| 2026-04-14 20:15 | 21.00847 | -101.52159 | 6612 ft | 82 kts | 226° |
| 2026-04-14 20:15 | 21.00435 | -101.52560 | 6694 ft | 82 kts | 219° |
| 2026-04-14 20:15 | 20.99958 | -101.52844 | 6807 ft | 77 kts | 201° |
| 2026-04-14 20:16 | 20.99403 | -101.52981 | 6832 ft | 82 kts | 154° |
| 2026-04-14 20:16 | 20.99114 | -101.52430 | 6774 ft | 96 kts | 107° |
| 2026-04-14 20:16 | 20.98900 | -101.51721 | 6786 ft | 102 kts | 119° |
| 2026-04-14 20:16 | 20.98536 | -101.51059 | 6824 ft | 104 kts | 123° |
| 2026-04-14 20:17 | 20.98138 | -101.50406 | 6867 ft | 105 kts | 124° |
| 2026-04-14 20:17 | 20.97730 | -101.49755 | 6893 ft | 108 kts | 126° |
| 2026-04-14 20:17 | 20.97379 | -101.49072 | 6952 ft | 105 kts | 105° |
| 2026-04-14 20:17 | 20.97285 | -101.48297 | 6922 ft | 104 kts | 99° |
| 2026-04-14 20:18 | 20.97301 | -101.47592 | 6637 ft | 88 kts | 79° |
| 2026-04-14 20:18 | 20.97522 | -101.46998 | 6335 ft | 86 kts | 45° |
| 2026-04-14 20:18 | 20.98072 | -101.46806 | 6004 ft | 86 kts | 340° |
| 2026-04-14 20:18 | 20.98481 | -101.47177 | 5904 ft | 70 kts | 313° |
| 2026-04-14 20:19 | 20.98806 | -101.47529 | 5907 ft | 56 kts | 315° |
| 2026-04-14 20:19 | 20.99012 | -101.47752 | 5910 ft | 31 kts | 314° |
| 2026-04-14 20:19 | 20.99071 | -101.47863 | 5911 ft | 12 kts | 214° |
| 2026-04-14 20:19 | 20.99000 | -101.47853 | 5910 ft | 10 kts | 160° |
| 2026-04-14 20:20 | 20.98943 | -101.47834 | 5910 ft | 7 kts | 162° |
| 2026-04-14 20:20 | 20.98894 | -101.47819 | 5910 ft | 7 kts | 169° |
| 2026-04-14 20:20 | 20.98831 | -101.47799 | 5909 ft | 16 kts | 169° |
| 2026-04-14 20:20 | 20.98747 | -101.47828 | 5908 ft | 11 kts | 252° |
| 2026-04-14 20:21 | 20.98794 | -101.47912 | 5909 ft | 12 kts | 312° |
| 2026-04-14 20:21 | 20.98847 | -101.47968 | 5910 ft | 12 kts | 314° |
| 2026-04-14 20:21 | 20.98864 | -101.48007 | 5911 ft | 6 kts | 146° |
| 2026-04-14 20:21 | 20.98856 | -101.47996 | 5911 ft | 0 kts | 128° |